createdAt,value
2018-05-23T00:01:44.680Z,93.00
2018-05-23T00:04:12.170Z,92.60
2018-05-23T00:06:40.409Z,92.40
2018-05-23T00:09:07.900Z,92.40
2018-05-23T00:11:36.342Z,92.40
2018-05-23T00:14:03.811Z,92.40
2018-05-23T00:16:31.280Z,92.00
2018-05-23T00:18:58.776Z,92.30
2018-05-23T00:21:26.290Z,92.40
2018-05-23T00:23:53.774Z,92.50
2018-05-23T00:26:22.013Z,92.60
2018-05-23T00:28:49.504Z,92.60
2018-05-23T00:31:17.777Z,92.60
2018-05-23T00:33:45.273Z,92.60
2018-05-23T00:36:12.740Z,92.40
2018-05-23T00:38:40.226Z,92.80
2018-05-23T00:41:07.705Z,92.60
2018-05-23T00:43:35.184Z,92.10
2018-05-23T00:46:03.432Z,92.90
2018-05-23T00:48:32.412Z,92.90
2018-05-23T00:50:59.933Z,92.90
2018-05-23T00:53:27.435Z,92.80
2018-05-23T00:55:54.927Z,92.50
2018-05-23T00:58:23.174Z,92.90
2018-05-23T01:00:50.681Z,92.90
2018-05-23T01:03:18.151Z,92.60
2018-05-23T01:05:45.626Z,93.20
2018-05-23T01:08:13.144Z,92.90
2018-05-23T01:10:40.638Z,93.20
2018-05-23T01:13:08.134Z,93.30
2018-05-23T01:15:36.387Z,92.90
2018-05-23T01:18:04.566Z,92.90
2018-05-23T01:20:32.082Z,92.70
2018-05-23T01:22:59.559Z,93.00
2018-05-23T01:25:27.035Z,93.10
2018-05-23T01:27:54.505Z,93.30
2018-05-23T01:30:21.974Z,93.30
2018-05-23T01:32:50.210Z,92.80
2018-05-23T01:35:17.716Z,92.80
2018-05-23T01:37:45.955Z,93.70
2018-05-23T01:40:13.434Z,93.60
2018-05-23T01:42:40.902Z,93.70
2018-05-23T01:45:09.944Z,93.80
2018-05-23T01:47:37.523Z,93.70
2018-05-23T01:50:05.128Z,93.60
2018-05-23T01:52:33.385Z,93.70
2018-05-23T01:55:00.854Z,93.60
2018-05-23T01:57:29.194Z,94.70
2018-05-23T01:59:56.679Z,94.60
2018-05-23T02:02:24.927Z,94.90
2018-05-23T02:04:52.409Z,94.90
2018-05-23T02:07:19.882Z,94.80
2018-05-23T02:09:48.123Z,94.40
2018-05-23T02:12:15.598Z,94.40
2018-05-23T02:14:43.856Z,93.80
2018-05-23T02:17:11.336Z,93.70
2018-05-23T02:19:39.764Z,94.40
2018-05-23T02:22:07.253Z,94.30
2018-05-23T02:24:34.718Z,94.30
2018-05-23T02:27:02.246Z,94.20
2018-05-23T02:29:29.742Z,94.00
2018-05-23T02:31:57.240Z,94.20
2018-05-23T02:34:25.324Z,94.10
2018-05-23T02:36:52.807Z,94.00
2018-05-23T02:39:20.287Z,94.10
2018-05-23T02:41:48.533Z,94.60
2018-05-23T02:44:16.004Z,94.20
2018-05-23T02:46:43.483Z,94.10
2018-05-23T02:49:11.761Z,94.80
2018-05-23T02:51:40.028Z,95.20
2018-05-23T02:54:07.491Z,95.10
2018-05-23T02:56:35.739Z,95.30
2018-05-23T02:59:03.215Z,95.20
2018-05-23T03:01:30.680Z,95.60
2018-05-23T03:03:58.167Z,95.70
2018-05-23T03:06:25.751Z,95.80
2018-05-23T03:08:53.235Z,95.70
2018-05-23T03:11:20.706Z,94.90
2018-05-23T03:13:48.978Z,95.60
2018-05-23T03:16:16.451Z,95.60
2018-05-23T03:18:44.743Z,95.50
2018-05-23T03:21:12.981Z,95.00
2018-05-23T03:23:40.458Z,95.00
2018-05-23T03:26:08.705Z,94.70
2018-05-23T03:28:36.189Z,94.60
2018-05-23T03:31:03.676Z,95.00
2018-05-23T03:33:31.154Z,95.10
2018-05-23T03:35:58.650Z,95.10
2018-05-23T03:38:26.139Z,94.70
2018-05-23T03:40:54.380Z,95.10
2018-05-23T03:43:21.857Z,95.00
2018-05-23T03:45:50.101Z,95.20
2018-05-23T03:48:17.581Z,95.10
2018-05-23T03:50:45.274Z,95.00
2018-05-23T03:53:12.754Z,95.00
2018-05-23T03:55:40.282Z,95.10
2018-05-23T03:58:08.550Z,95.40
2018-05-23T04:00:47.771Z,95.40
2018-05-23T04:03:27.094Z,95.10
2018-05-23T04:06:06.365Z,94.80
2018-05-23T04:08:34.712Z,95.00
2018-05-23T04:11:02.199Z,95.10
2018-05-23T04:13:29.701Z,95.30
2018-05-23T04:15:57.186Z,95.20
2018-05-23T04:18:24.687Z,95.40
2018-05-23T04:20:52.172Z,95.50
2018-05-23T04:23:19.657Z,95.80
2018-05-23T04:25:47.153Z,95.70
2018-05-23T04:28:14.640Z,95.60
2018-05-23T04:30:42.145Z,95.80
2018-05-23T04:33:10.378Z,95.80
2018-05-23T04:35:37.878Z,95.80
2018-05-23T04:38:05.934Z,96.10
2018-05-23T04:40:34.194Z,95.90
2018-05-23T04:43:01.695Z,95.90
2018-05-23T04:45:29.951Z,95.80
2018-05-23T04:47:57.429Z,95.80
2018-05-23T04:50:25.681Z,95.90
2018-05-23T04:52:53.166Z,95.90
2018-05-23T04:55:21.405Z,95.80
2018-05-23T04:57:48.899Z,95.80
2018-05-23T05:00:17.153Z,95.70
2018-05-23T05:02:45.430Z,95.60
2018-05-23T05:05:13.711Z,95.70
2018-05-23T05:07:41.190Z,95.70
2018-05-23T05:10:08.769Z,95.80
2018-05-23T05:12:36.153Z,96.20
2018-05-23T05:15:03.655Z,96.20
2018-05-23T05:17:31.916Z,96.70
2018-05-23T05:19:59.405Z,96.60
2018-05-23T05:22:27.882Z,97.20
2018-05-23T05:24:55.441Z,97.10
2018-05-23T05:27:22.987Z,97.40
2018-05-23T05:29:51.261Z,97.40
2018-05-23T05:32:19.497Z,97.50
2018-05-23T05:34:47.565Z,97.40
2018-05-23T05:37:15.022Z,97.30
2018-05-23T05:39:42.623Z,97.40
2018-05-23T05:42:10.872Z,97.30
2018-05-23T05:44:38.354Z,97.20
2018-05-23T05:47:06.590Z,97.20
2018-05-23T05:49:34.085Z,97.20
2018-05-23T05:52:01.560Z,97.10
2018-05-23T05:54:29.038Z,97.00
2018-05-23T05:56:56.715Z,96.90
2018-05-23T05:59:24.222Z,96.60
2018-05-23T06:01:52.511Z,96.70
2018-05-23T06:04:20.756Z,96.70
2018-05-23T06:06:48.537Z,96.70
2018-05-23T06:09:16.083Z,96.60
2018-05-23T06:11:43.603Z,96.60
2018-05-23T06:14:11.107Z,96.30
2018-05-23T06:16:39.333Z,95.90
2018-05-23T06:19:06.817Z,95.90
2018-05-23T06:21:34.310Z,95.90
2018-05-23T06:24:02.619Z,95.10
2018-05-23T06:26:30.105Z,95.10
2018-05-23T06:28:57.590Z,94.90
2018-05-23T06:31:25.077Z,94.90
2018-05-23T06:33:52.694Z,94.90
2018-05-23T06:36:20.159Z,95.00
2018-05-23T06:38:48.415Z,94.90
2018-05-23T06:41:15.890Z,94.90
2018-05-23T06:43:43.493Z,94.80
2018-05-23T06:46:11.625Z,94.40
2018-05-23T06:48:39.125Z,94.40
2018-05-23T06:51:06.611Z,94.30
2018-05-23T06:53:34.097Z,93.50
2018-05-23T06:56:02.343Z,92.60
2018-05-23T06:58:29.912Z,92.70
2018-05-23T07:00:57.417Z,92.70
2018-05-23T07:03:25.649Z,92.40
2018-05-23T07:05:53.232Z,92.40
2018-05-23T07:08:20.612Z,92.40
2018-05-23T07:10:49.131Z,92.40
2018-05-23T07:13:17.573Z,92.20
2018-05-23T07:15:45.821Z,92.20
2018-05-23T07:18:13.352Z,92.10
2018-05-23T07:20:40.805Z,92.20
2018-05-23T07:23:08.306Z,92.30
2018-05-23T07:25:35.785Z,91.80
2018-05-23T07:28:04.127Z,91.90
2018-05-23T07:30:32.362Z,91.90
2018-05-23T07:32:59.865Z,91.70
2018-05-23T07:35:28.349Z,91.60
2018-05-23T07:37:55.845Z,91.60
2018-05-23T07:40:24.175Z,91.60
2018-05-23T07:42:51.755Z,91.40
2018-05-23T07:45:20.000Z,91.40
2018-05-23T07:47:47.521Z,91.40
2018-05-23T07:50:15.030Z,91.00
2018-05-23T07:52:42.519Z,90.40
2018-05-23T07:55:10.763Z,90.20
2018-05-23T07:57:38.236Z,90.20
2018-05-23T08:00:05.718Z,90.00
2018-05-23T08:02:33.962Z,89.60
2018-05-23T08:05:01.452Z,89.60
2018-05-23T08:07:29.695Z,88.90
2018-05-23T08:09:57.815Z,88.80
2018-05-23T08:12:25.301Z,88.60
2018-05-23T08:14:52.783Z,87.70
2018-05-23T08:17:20.392Z,87.70
2018-05-23T08:19:47.852Z,87.70
2018-05-23T08:22:15.321Z,87.30
2018-05-23T08:24:42.804Z,86.20
2018-05-23T08:27:10.366Z,86.60
2018-05-23T08:29:37.864Z,86.30
2018-05-23T08:32:06.133Z,84.10
2018-05-23T08:34:33.654Z,84.00
2018-05-23T08:37:01.147Z,86.20
2018-05-23T08:39:29.405Z,84.20
2018-05-23T08:41:56.873Z,84.20
2018-05-23T08:44:25.129Z,80.70
2018-05-23T08:46:52.629Z,80.70
2018-05-23T08:49:20.128Z,82.90
2018-05-23T08:51:47.724Z,81.40
2018-05-23T08:54:15.968Z,81.20
2018-05-23T08:56:43.435Z,81.10
2018-05-23T08:59:10.928Z,82.00
2018-05-23T09:01:39.180Z,77.30
2018-05-23T09:04:06.670Z,77.30
2018-05-23T09:06:34.157Z,77.50
2018-05-23T09:09:01.639Z,79.50
2018-05-23T09:11:29.119Z,80.00
2018-05-23T09:13:57.373Z,80.90
2018-05-23T09:16:24.860Z,80.70
2018-05-23T09:18:52.430Z,78.90
2018-05-23T09:21:20.676Z,79.80
2018-05-23T09:23:48.159Z,79.70
2018-05-23T09:26:16.409Z,78.20
2018-05-23T09:28:43.889Z,78.10
2018-05-23T09:31:12.142Z,78.40
2018-05-23T09:33:41.130Z,80.50
2018-05-23T09:36:08.613Z,80.50
2018-05-23T09:38:36.877Z,79.50
2018-05-23T09:41:04.345Z,79.50
2018-05-23T09:43:32.594Z,78.30
2018-05-23T09:46:00.079Z,78.30
2018-05-23T09:48:28.339Z,80.90
2018-05-23T09:50:56.069Z,80.20
2018-05-23T09:53:23.583Z,80.30
2018-05-23T09:55:51.859Z,81.20
2018-05-23T09:58:20.108Z,79.30
2018-05-23T10:00:47.610Z,79.20
2018-05-23T10:03:15.090Z,78.50
2018-05-23T10:05:42.596Z,75.60
2018-05-23T10:08:10.076Z,75.90
2018-05-23T10:10:38.313Z,76.80
2018-05-23T10:13:05.796Z,76.80
2018-05-23T10:15:34.170Z,78.90
2018-05-23T10:18:02.423Z,79.20
2018-05-23T10:20:29.893Z,79.10
2018-05-23T10:22:57.766Z,76.50
2018-05-23T10:25:25.231Z,76.30
2018-05-23T10:27:53.486Z,74.90
2018-05-23T10:30:20.987Z,74.70
2018-05-23T10:32:48.461Z,73.70
2018-05-23T10:35:15.998Z,75.80
2018-05-23T10:37:43.468Z,74.10
2018-05-23T10:40:10.982Z,73.50
2018-05-23T10:42:38.471Z,72.10
2018-05-23T10:45:06.716Z,74.00
2018-05-23T10:47:34.183Z,74.00
2018-05-23T10:50:01.663Z,74.60
2018-05-23T10:52:29.150Z,76.00
2018-05-23T10:54:56.631Z,75.60
2018-05-23T10:57:24.116Z,75.40
2018-05-23T10:59:52.376Z,77.40
2018-05-23T11:02:20.519Z,77.30
2018-05-23T11:04:48.030Z,76.70
2018-05-23T11:07:16.885Z,73.50
2018-05-23T11:09:45.161Z,75.20
2018-05-23T11:12:12.657Z,75.00
2018-05-23T11:14:40.928Z,73.50
2018-05-23T11:17:08.391Z,73.30
2018-05-23T11:19:36.653Z,75.80
2018-05-23T11:22:04.939Z,77.10
2018-05-23T11:24:33.310Z,75.10
2018-05-23T11:27:00.978Z,75.10
2018-05-23T11:29:28.487Z,76.30
2018-05-23T11:31:56.254Z,73.80
2018-05-23T11:34:23.752Z,73.50
2018-05-23T11:36:51.258Z,71.80
2018-05-23T11:39:18.750Z,70.20
2018-05-23T11:41:46.472Z,70.60
2018-05-23T11:44:14.056Z,71.30
2018-05-23T11:46:41.631Z,70.10
2018-05-23T11:49:09.194Z,66.70
2018-05-23T11:51:36.665Z,67.90
2018-05-23T11:54:04.950Z,68.70
2018-05-23T11:56:33.232Z,68.30
2018-05-23T11:59:01.507Z,65.20
2018-05-23T12:01:29.066Z,65.00
2018-05-23T12:03:56.569Z,67.40
2018-05-23T12:06:24.053Z,66.00
2018-05-23T12:08:51.709Z,65.30
2018-05-23T12:11:19.194Z,68.10
2018-05-23T12:13:47.461Z,68.10
2018-05-23T12:16:14.949Z,68.90
2018-05-23T12:18:42.440Z,64.50
2018-05-23T12:21:10.046Z,62.40
2018-05-23T12:23:37.555Z,63.50
2018-05-23T12:26:05.059Z,63.60
2018-05-23T12:28:33.384Z,63.90
2018-05-23T12:31:00.857Z,63.20
2018-05-23T12:33:28.456Z,62.80
2018-05-23T12:35:55.933Z,64.40
2018-05-23T12:38:23.560Z,63.30
2018-05-23T12:40:51.092Z,62.00
2018-05-23T12:43:18.573Z,61.80
2018-05-23T12:45:46.086Z,61.40
2018-05-23T12:48:13.568Z,61.50
2018-05-23T12:50:41.133Z,62.10
2018-05-23T12:53:08.615Z,60.90
2018-05-23T12:55:36.098Z,61.30
2018-05-23T12:58:04.444Z,61.50
2018-05-23T13:00:31.919Z,61.50
2018-05-23T13:03:00.184Z,62.70
2018-05-23T13:05:27.777Z,62.60
2018-05-23T13:07:55.365Z,63.20
2018-05-23T13:10:22.929Z,63.60
2018-05-23T13:12:50.515Z,65.40
2018-05-23T13:15:18.033Z,66.90
2018-05-23T13:17:45.564Z,66.80
2018-05-23T13:20:14.384Z,65.30
2018-05-23T13:22:41.876Z,65.20
2018-05-23T13:25:09.986Z,69.50
2018-05-23T13:27:38.250Z,70.90
2018-05-23T13:30:06.524Z,70.40
2018-05-23T13:32:34.832Z,69.60
2018-05-23T13:35:02.450Z,69.40
2018-05-23T13:37:29.927Z,68.90
2018-05-23T13:39:58.276Z,67.20
2018-05-23T13:42:25.800Z,67.10
2018-05-23T13:44:53.293Z,67.20
2018-05-23T13:47:20.797Z,66.60
2018-05-23T13:49:48.370Z,66.20
2018-05-23T13:52:16.518Z,67.70
2018-05-23T13:54:44.090Z,66.70
2018-05-23T13:57:11.808Z,68.30
2018-05-23T13:59:40.298Z,67.00
2018-05-23T14:02:09.596Z,67.00
2018-05-23T14:04:37.079Z,67.40
2018-05-23T14:07:06.034Z,65.80
2018-05-23T14:09:34.418Z,66.40
2018-05-23T14:12:02.730Z,67.10
2018-05-23T14:14:31.023Z,68.00
2018-05-23T14:16:58.726Z,68.00
2018-05-23T14:19:26.382Z,66.90
2018-05-23T14:21:53.839Z,66.30
2018-05-23T14:24:21.316Z,68.60
2018-05-23T14:26:49.704Z,65.60
2018-05-23T14:29:17.371Z,67.40
2018-05-23T14:31:44.989Z,65.40
2018-05-23T14:34:12.489Z,66.80
2018-05-23T14:36:40.733Z,69.20
2018-05-23T14:39:08.712Z,69.10
2018-05-23T14:41:37.998Z,68.70
2018-05-23T14:44:05.576Z,72.20
2018-05-23T14:46:38.640Z,70.10
2018-05-23T14:49:06.246Z,69.10
2018-05-23T14:51:35.366Z,69.20
2018-05-23T14:54:02.988Z,68.60
2018-05-23T14:56:30.614Z,68.90
2018-05-23T14:58:58.266Z,69.80
2018-05-23T15:01:25.754Z,70.80
2018-05-23T15:03:53.246Z,69.40
2018-05-23T15:06:21.489Z,69.90
2018-05-23T15:08:48.978Z,69.80
2018-05-23T15:11:16.602Z,70.30
2018-05-23T15:13:44.082Z,68.30
2018-05-23T15:16:11.767Z,68.50
2018-05-23T15:18:39.294Z,70.60
2018-05-23T15:21:06.784Z,71.70
2018-05-23T15:23:35.129Z,69.80
2018-05-23T15:26:02.608Z,69.80
2018-05-23T15:28:30.874Z,70.40
2018-05-23T15:30:58.367Z,70.10
2018-05-23T15:33:26.646Z,69.90
2018-05-23T15:35:54.248Z,69.80
2018-05-23T15:38:21.730Z,68.90
2018-05-23T15:40:49.208Z,67.50
2018-05-23T15:43:18.077Z,66.20
2018-05-23T15:45:45.628Z,66.10
2018-05-23T15:48:13.246Z,65.50
2018-05-23T15:50:40.846Z,64.00
2018-05-23T15:53:08.341Z,68.30
2018-05-23T15:55:36.678Z,66.80
2018-05-23T15:58:04.738Z,66.80
2018-05-23T16:00:33.029Z,65.20
2018-05-23T16:03:00.543Z,65.90
2018-05-23T16:05:28.018Z,64.60
2018-05-23T16:07:55.573Z,65.30
2018-05-23T16:10:23.280Z,64.70
2018-05-23T16:12:50.814Z,65.20
2018-05-23T16:15:18.298Z,65.80
2018-05-23T16:17:45.774Z,65.60
2018-05-23T16:20:14.069Z,65.30
2018-05-23T16:22:42.229Z,65.20
2018-05-23T16:25:10.465Z,66.90
2018-05-23T16:27:37.946Z,66.80
2018-05-23T16:30:06.196Z,65.50
2018-05-23T16:32:33.742Z,65.40
2018-05-23T16:35:01.300Z,67.30
2018-05-23T16:37:28.828Z,67.90
2018-05-23T16:39:56.907Z,69.40
2018-05-23T16:42:24.436Z,68.60
2018-05-23T16:44:52.765Z,69.50
2018-05-23T16:47:20.344Z,69.50
2018-05-23T16:49:47.977Z,69.50
2018-05-23T16:52:15.823Z,70.40
2018-05-23T16:54:43.375Z,71.80
2018-05-23T16:57:10.863Z,70.60
2018-05-23T16:59:38.351Z,70.60
2018-05-23T17:02:06.563Z,70.10
2018-05-23T17:04:34.807Z,71.40
2018-05-23T17:07:02.335Z,72.00
2018-05-23T17:09:30.200Z,70.70
2018-05-23T17:11:57.691Z,71.50
2018-05-23T17:14:25.214Z,71.20
2018-05-23T17:16:52.786Z,71.50
2018-05-23T17:19:20.265Z,71.70
2018-05-23T17:21:48.504Z,71.80
2018-05-23T17:24:16.244Z,71.80
2018-05-23T17:26:43.987Z,71.70
2018-05-23T17:29:12.254Z,72.70
2018-05-23T17:31:39.781Z,72.60
2018-05-23T17:34:07.279Z,72.70
2018-05-23T17:36:35.778Z,71.80
2018-05-23T17:39:03.391Z,71.70
2018-05-23T17:41:31.681Z,71.30
2018-05-23T17:44:00.008Z,72.20
2018-05-23T17:46:27.567Z,72.20
2018-05-23T17:48:55.061Z,72.60
2018-05-23T17:51:23.341Z,72.00
2018-05-23T17:53:50.903Z,72.00
2018-05-23T17:56:18.993Z,70.60
2018-05-23T17:58:46.495Z,70.50
2018-05-23T18:01:14.096Z,71.00
2018-05-23T18:03:41.721Z,70.80
2018-05-23T18:06:09.371Z,71.30
2018-05-23T18:08:36.784Z,71.30
2018-05-23T18:11:04.422Z,70.80
2018-05-23T18:13:31.984Z,69.30
2018-05-23T18:16:00.190Z,70.10
2018-05-23T18:18:28.445Z,69.80
2018-05-23T18:20:56.693Z,69.80
2018-05-23T18:23:24.311Z,69.90
2018-05-23T18:25:53.098Z,69.60
2018-05-23T18:28:21.378Z,70.40
2018-05-23T18:30:49.710Z,71.10
2018-05-23T18:33:17.476Z,71.40
2018-05-23T18:35:45.169Z,70.00
2018-05-23T18:38:12.668Z,70.50
2018-05-23T18:40:40.185Z,70.50
2018-05-23T18:43:08.610Z,71.80
2018-05-23T18:45:36.124Z,71.80
2018-05-23T18:48:04.434Z,72.30
2018-05-23T18:50:31.910Z,72.20
2018-05-23T18:52:59.422Z,72.70
2018-05-23T18:55:27.672Z,73.90
2018-05-23T18:57:55.200Z,73.80
2018-05-23T19:00:22.674Z,74.50
2018-05-23T19:02:50.169Z,74.50
2018-05-23T19:05:18.627Z,76.40
2018-05-23T19:07:46.223Z,77.10
2018-05-23T19:10:14.563Z,78.90
2018-05-23T19:12:42.066Z,78.80
2018-05-23T19:15:09.574Z,79.10
2018-05-23T19:17:37.053Z,80.00
2018-05-23T19:20:04.646Z,80.80
2018-05-23T19:22:32.069Z,80.60
2018-05-23T19:24:59.623Z,81.00
2018-05-23T19:27:27.142Z,81.20
2018-05-23T19:29:54.659Z,81.20
2018-05-23T19:32:23.008Z,82.10
2018-05-23T19:34:50.518Z,82.00
2018-05-23T19:37:18.069Z,82.50
2018-05-23T19:39:46.324Z,83.90
2018-05-23T19:42:13.825Z,83.90
2018-05-23T19:44:41.316Z,84.40
2018-05-23T19:47:08.793Z,82.60
2018-05-23T19:49:36.878Z,83.40
2018-05-23T19:52:05.123Z,83.90
2018-05-23T19:54:32.619Z,83.90
2018-05-23T19:57:00.858Z,82.60
2018-05-23T19:59:28.351Z,82.50
2018-05-23T20:01:56.651Z,83.10
2018-05-23T20:04:24.218Z,83.00
2018-05-23T20:06:51.775Z,83.60
2018-05-23T20:09:19.288Z,84.50
2018-05-23T20:11:46.770Z,85.10
2018-05-23T20:14:14.291Z,85.20
2018-05-23T20:16:41.779Z,85.00
2018-05-23T20:19:10.043Z,86.00
2018-05-23T20:21:38.306Z,87.00
2018-05-23T20:24:05.784Z,86.90
2018-05-23T20:26:34.023Z,87.40
2018-05-23T20:29:01.519Z,87.30
2018-05-23T20:31:29.801Z,87.20
2018-05-23T20:33:58.032Z,87.20
2018-05-23T20:36:25.633Z,87.10
2018-05-23T20:38:53.873Z,87.40
2018-05-23T20:41:21.376Z,87.40
2018-05-23T20:43:49.476Z,87.30
2018-05-23T20:46:16.983Z,86.70
2018-05-23T20:48:45.090Z,87.20
2018-05-23T20:51:12.596Z,86.90
2018-05-23T20:53:40.088Z,87.30
2018-05-23T20:56:07.600Z,87.10
2018-05-23T20:58:35.153Z,87.20
2018-05-23T21:01:02.622Z,88.00
2018-05-23T21:03:30.165Z,88.90
2018-05-23T21:05:57.786Z,89.60
2018-05-23T21:08:25.402Z,90.00
2018-05-23T21:10:52.919Z,90.10
2018-05-23T21:13:20.448Z,90.00
2018-05-23T21:15:47.979Z,90.20
2018-05-23T21:18:15.620Z,90.20
2018-05-23T21:20:43.232Z,90.50
2018-05-23T21:23:11.542Z,90.70
2018-05-23T21:25:39.014Z,90.60
2018-05-23T21:28:06.517Z,90.70
2018-05-23T21:30:34.775Z,90.70
2018-05-23T21:33:02.255Z,90.70
2018-05-23T21:35:29.825Z,90.40
2018-05-23T21:37:58.181Z,90.30
2018-05-23T21:40:26.464Z,90.60
2018-05-23T21:42:53.976Z,90.60
2018-05-23T21:45:21.546Z,90.90
2018-05-23T21:47:49.201Z,91.40
2018-05-23T21:50:16.705Z,91.60
2018-05-23T21:52:44.977Z,91.50
2018-05-23T21:55:12.514Z,91.50
2018-05-23T21:57:40.022Z,91.70
2018-05-23T22:00:09.558Z,91.60
2018-05-23T22:02:37.057Z,91.50
2018-05-23T22:05:05.063Z,91.60
2018-05-23T22:07:32.647Z,91.50
2018-05-23T22:10:00.146Z,91.20
2018-05-23T22:12:27.743Z,90.70
2018-05-23T22:14:55.219Z,90.90
2018-05-23T22:17:22.728Z,91.30
2018-05-23T22:19:50.230Z,91.90
2018-05-23T22:22:17.768Z,92.00
2018-05-23T22:24:45.278Z,92.30
2018-05-23T22:27:12.809Z,92.10
2018-05-23T22:29:40.433Z,92.00
2018-05-23T22:32:08.701Z,92.40
2018-05-23T22:34:37.018Z,92.50
2018-05-23T22:37:04.523Z,92.50
2018-05-23T22:39:32.006Z,92.50
2018-05-23T22:42:00.269Z,91.90
2018-05-23T22:44:28.518Z,92.10
2018-05-23T22:46:56.060Z,92.10
2018-05-23T22:49:23.567Z,91.90
2018-05-23T22:51:51.838Z,91.30
2018-05-23T22:54:19.359Z,91.30
2018-05-23T22:56:47.580Z,92.20
2018-05-23T22:59:15.833Z,91.70
2018-05-23T23:01:43.312Z,91.70
2018-05-23T23:04:11.573Z,92.10
2018-05-23T23:06:39.396Z,92.10
2018-05-23T23:09:06.866Z,91.60
2018-05-23T23:11:34.379Z,91.80
2018-05-23T23:14:03.202Z,91.90
2018-05-23T23:16:30.694Z,91.80
2018-05-23T23:18:58.279Z,91.90
2018-05-23T23:21:25.751Z,91.70
2018-05-23T23:23:53.238Z,91.80
2018-05-23T23:26:20.718Z,91.80
2018-05-23T23:28:48.234Z,91.70
2018-05-23T23:31:15.809Z,91.90
2018-05-23T23:33:43.304Z,91.60
2018-05-23T23:36:10.764Z,91.80
2018-05-23T23:38:38.250Z,91.80
2018-05-23T23:41:06.495Z,91.90
2018-05-23T23:43:33.971Z,91.90
2018-05-23T23:46:02.222Z,92.60
2018-05-23T23:48:29.877Z,92.60
2018-05-23T23:50:57.369Z,93.00
2018-05-23T23:53:25.613Z,92.60
2018-05-23T23:55:53.141Z,92.50
2018-05-23T23:58:20.625Z,92.40
